San Antonio, Texas
Traffic Map
Current Weather Conditions
San Antonio, Texas
Clear
Clear
35°
Feels Like: 35°
Wind Chill: 35° Ceiling: Unl
Heat Index: 35° Visibility: 10mi
Dew Point: 16° Wind: 8mph
Humidity: 32% Direction: 100° (E)
Pressure: 29.94in Gusts: 0mph
Raw Report DataKSKF 312058Z 10007KT 10SM CLR 35/16 A2994 RMK AO2A SLP130 T03470160 57023 $
Traffic Incident Summary
Active as of:
Severity:
Category:
InformationThere was an issue retrieving the traffic information for this location. Please try a different location or try again shortly.
Advertisements
Track Severe Weather on mobile